sensor_id;sensor_type;location;lat;lon;timestamp;P1;durP1;ratioP1;P2;durP2;ratioP2
8285;SDS011;4181;43.416;24.598;2024-03-06T00:01:31;13.20;;;9.03;;
8285;SDS011;4181;43.416;24.598;2024-03-06T00:06:44;13.23;;;9.93;;
8285;SDS011;4181;43.416;24.598;2024-03-06T00:09:17;17.13;;;10.23;;
8285;SDS011;4181;43.416;24.598;2024-03-06T00:11:48;15.23;;;9.43;;
8285;SDS011;4181;43.416;24.598;2024-03-06T00:14:32;19.97;;;10.27;;
8285;SDS011;4181;43.416;24.598;2024-03-06T00:17:03;21.77;;;10.57;;
8285;SDS011;4181;43.416;24.598;2024-03-06T00:19:31;18.90;;;10.00;;
8285;SDS011;4181;43.416;24.598;2024-03-06T00:22:04;23.73;;;9.53;;
8285;SDS011;4181;43.416;24.598;2024-03-06T00:24:35;22.37;;;10.07;;
8285;SDS011;4181;43.416;24.598;2024-03-06T00:27:06;16.37;;;8.93;;
8285;SDS011;4181;43.416;24.598;2024-03-06T00:29:39;14.70;;;7.83;;
8285;SDS011;4181;43.416;24.598;2024-03-06T00:32:08;16.73;;;8.60;;
8285;SDS011;4181;43.416;24.598;2024-03-06T00:34:40;15.00;;;8.90;;
8285;SDS011;4181;43.416;24.598;2024-03-06T00:37:14;20.83;;;9.97;;
8285;SDS011;4181;43.416;24.598;2024-03-06T00:39:48;14.77;;;9.70;;
8285;SDS011;4181;43.416;24.598;2024-03-06T00:42:34;19.03;;;9.97;;
8285;SDS011;4181;43.416;24.598;2024-03-06T00:47:48;14.00;;;9.20;;
8285;SDS011;4181;43.416;24.598;2024-03-06T00:50:14;15.93;;;8.13;;
8285;SDS011;4181;43.416;24.598;2024-03-06T00:52:44;15.73;;;8.77;;
8285;SDS011;4181;43.416;24.598;2024-03-06T00:55:25;11.97;;;8.13;;
8285;SDS011;4181;43.416;24.598;2024-03-06T00:57:53;23.73;;;9.67;;
8285;SDS011;4181;43.416;24.598;2024-03-06T01:00:33;16.00;;;8.57;;
8285;SDS011;4181;43.416;24.598;2024-03-06T01:03:08;18.00;;;9.47;;
8285;SDS011;4181;43.416;24.598;2024-03-06T01:05:37;18.30;;;9.10;;
8285;SDS011;4181;43.416;24.598;2024-03-06T01:08:20;17.80;;;8.53;;
8285;SDS011;4181;43.416;24.598;2024-03-06T01:10:52;16.00;;;8.30;;
8285;SDS011;4181;43.416;24.598;2024-03-06T01:13:36;12.40;;;8.80;;
8285;SDS011;4181;43.416;24.598;2024-03-06T01:16:13;14.80;;;8.03;;
8285;SDS011;4181;43.416;24.598;2024-03-06T01:18:46;19.73;;;8.87;;
8285;SDS011;4181;43.416;24.598;2024-03-06T01:21:17;13.47;;;8.87;;
8285;SDS011;4181;43.416;24.598;2024-03-06T01:24:01;18.37;;;8.77;;
8285;SDS011;4181;43.416;24.598;2024-03-06T01:26:29;14.80;;;9.27;;
8285;SDS011;4181;43.416;24.598;2024-03-06T01:29:00;16.23;;;9.00;;
8285;SDS011;4181;43.416;24.598;2024-03-06T01:31:33;18.70;;;9.23;;
8285;SDS011;4181;43.416;24.598;2024-03-06T01:34:14;16.90;;;8.63;;
8285;SDS011;4181;43.416;24.598;2024-03-06T01:36:50;16.07;;;11.60;;
8285;SDS011;4181;43.416;24.598;2024-03-06T01:39:24;15.47;;;9.57;;
8285;SDS011;4181;43.416;24.598;2024-03-06T01:41:54;20.77;;;10.33;;
8285;SDS011;4181;43.416;24.598;2024-03-06T01:44:26;24.27;;;10.80;;
8285;SDS011;4181;43.416;24.598;2024-03-06T01:46:56;16.13;;;9.63;;
8285;SDS011;4181;43.416;24.598;2024-03-06T01:49:33;13.20;;;8.20;;
8285;SDS011;4181;43.416;24.598;2024-03-06T01:52:01;17.50;;;9.57;;
8285;SDS011;4181;43.416;24.598;2024-03-06T01:54:34;15.73;;;9.30;;
8285;SDS011;4181;43.416;24.598;2024-03-06T01:57:10;17.07;;;10.17;;
8285;SDS011;4181;43.416;24.598;2024-03-06T01:59:45;16.47;;;9.40;;
8285;SDS011;4181;43.416;24.598;2024-03-06T02:02:18;14.33;;;7.70;;
8285;SDS011;4181;43.416;24.598;2024-03-06T02:04:54;15.70;;;8.03;;
8285;SDS011;4181;43.416;24.598;2024-03-06T02:07:27;19.20;;;8.80;;
8285;SDS011;4181;43.416;24.598;2024-03-06T02:10:04;17.47;;;9.57;;
8285;SDS011;4181;43.416;24.598;2024-03-06T02:12:37;19.10;;;10.17;;
8285;SDS011;4181;43.416;24.598;2024-03-06T02:15:22;23.13;;;9.20;;
8285;SDS011;4181;43.416;24.598;2024-03-06T02:17:55;17.00;;;8.93;;
8285;SDS011;4181;43.416;24.598;2024-03-06T02:20:23;17.37;;;9.37;;
8285;SDS011;4181;43.416;24.598;2024-03-06T02:22:52;16.53;;;9.10;;
8285;SDS011;4181;43.416;24.598;2024-03-06T02:25:21;19.13;;;8.77;;
8285;SDS011;4181;43.416;24.598;2024-03-06T02:27:48;19.80;;;9.50;;
8285;SDS011;4181;43.416;24.598;2024-03-06T02:30:22;17.33;;;9.13;;
8285;SDS011;4181;43.416;24.598;2024-03-06T02:32:53;14.53;;;8.70;;
8285;SDS011;4181;43.416;24.598;2024-03-06T02:35:33;18.33;;;10.07;;
8285;SDS011;4181;43.416;24.598;2024-03-06T02:38:02;21.10;;;10.70;;
8285;SDS011;4181;43.416;24.598;2024-03-06T02:40:35;14.20;;;8.20;;
8285;SDS011;4181;43.416;24.598;2024-03-06T02:43:06;17.70;;;8.87;;
8285;SDS011;4181;43.416;24.598;2024-03-06T02:45:46;12.43;;;7.63;;
8285;SDS011;4181;43.416;24.598;2024-03-06T02:48:19;17.87;;;9.10;;
8285;SDS011;4181;43.416;24.598;2024-03-06T02:50:47;15.37;;;8.27;;
8285;SDS011;4181;43.416;24.598;2024-03-06T02:53:23;17.00;;;9.57;;
8285;SDS011;4181;43.416;24.598;2024-03-06T02:56:01;14.77;;;8.37;;
8285;SDS011;4181;43.416;24.598;2024-03-06T02:58:30;16.60;;;9.30;;
8285;SDS011;4181;43.416;24.598;2024-03-06T03:01:01;11.67;;;8.07;;
8285;SDS011;4181;43.416;24.598;2024-03-06T03:03:40;13.20;;;8.70;;
8285;SDS011;4181;43.416;24.598;2024-03-06T03:06:20;17.90;;;9.63;;
8285;SDS011;4181;43.416;24.598;2024-03-06T03:08:54;15.73;;;9.57;;
8285;SDS011;4181;43.416;24.598;2024-03-06T03:11:39;19.47;;;9.90;;
8285;SDS011;4181;43.416;24.598;2024-03-06T03:14:09;18.50;;;10.27;;
8285;SDS011;4181;43.416;24.598;2024-03-06T03:19:21;21.37;;;9.17;;
8285;SDS011;4181;43.416;24.598;2024-03-06T03:21:53;16.97;;;9.03;;
8285;SDS011;4181;43.416;24.598;2024-03-06T03:24:20;12.90;;;8.03;;
8285;SDS011;4181;43.416;24.598;2024-03-06T03:26:48;20.90;;;10.47;;
8285;SDS011;4181;43.416;24.598;2024-03-06T03:29:18;17.87;;;10.23;;
8285;SDS011;4181;43.416;24.598;2024-03-06T03:32:02;18.83;;;8.93;;
8285;SDS011;4181;43.416;24.598;2024-03-06T03:34:36;15.37;;;8.63;;
8285;SDS011;4181;43.416;24.598;2024-03-06T03:37:07;18.23;;;10.20;;
8285;SDS011;4181;43.416;24.598;2024-03-06T03:39:34;15.83;;;8.73;;
8285;SDS011;4181;43.416;24.598;2024-03-06T03:42:02;19.53;;;8.33;;
8285;SDS011;4181;43.416;24.598;2024-03-06T03:44:40;16.60;;;9.10;;
8285;SDS011;4181;43.416;24.598;2024-03-06T03:47:07;18.90;;;9.63;;
8285;SDS011;4181;43.416;24.598;2024-03-06T03:49:36;20.53;;;10.37;;
8285;SDS011;4181;43.416;24.598;2024-03-06T03:52:04;21.37;;;10.20;;
8285;SDS011;4181;43.416;24.598;2024-03-06T03:54:36;18.30;;;9.87;;
8285;SDS011;4181;43.416;24.598;2024-03-06T03:57:08;16.23;;;9.40;;
8285;SDS011;4181;43.416;24.598;2024-03-06T03:59:36;16.23;;;9.00;;
8285;SDS011;4181;43.416;24.598;2024-03-06T04:02:09;20.60;;;9.20;;
8285;SDS011;4181;43.416;24.598;2024-03-06T04:04:35;15.53;;;8.43;;
8285;SDS011;4181;43.416;24.598;2024-03-06T04:07:01;23.17;;;11.20;;
8285;SDS011;4181;43.416;24.598;2024-03-06T04:09:28;18.57;;;7.77;;
8285;SDS011;4181;43.416;24.598;2024-03-06T04:11:55;23.63;;;10.03;;
8285;SDS011;4181;43.416;24.598;2024-03-06T04:14:26;16.77;;;10.23;;
8285;SDS011;4181;43.416;24.598;2024-03-06T04:17:09;22.90;;;12.57;;
8285;SDS011;4181;43.416;24.598;2024-03-06T04:19:40;23.93;;;11.80;;
8285;SDS011;4181;43.416;24.598;2024-03-06T04:22:18;20.97;;;10.33;;
8285;SDS011;4181;43.416;24.598;2024-03-06T04:24:50;16.90;;;10.10;;
8285;SDS011;4181;43.416;24.598;2024-03-06T04:27:21;18.33;;;11.50;;
8285;SDS011;4181;43.416;24.598;2024-03-06T04:29:48;17.17;;;11.30;;
8285;SDS011;4181;43.416;24.598;2024-03-06T04:32:14;19.07;;;10.73;;
8285;SDS011;4181;43.416;24.598;2024-03-06T04:34:40;19.07;;;10.17;;
8285;SDS011;4181;43.416;24.598;2024-03-06T04:37:13;19.13;;;11.27;;
8285;SDS011;4181;43.416;24.598;2024-03-06T04:39:51;16.43;;;9.47;;
8285;SDS011;4181;43.416;24.598;2024-03-06T04:42:21;16.90;;;9.50;;
8285;SDS011;4181;43.416;24.598;2024-03-06T04:44:47;14.43;;;9.33;;
8285;SDS011;4181;43.416;24.598;2024-03-06T04:47:18;15.60;;;9.57;;
8285;SDS011;4181;43.416;24.598;2024-03-06T04:49:46;17.20;;;8.60;;
8285;SDS011;4181;43.416;24.598;2024-03-06T04:52:19;20.27;;;10.17;;
8285;SDS011;4181;43.416;24.598;2024-03-06T04:54:53;14.80;;;8.87;;
8285;SDS011;4181;43.416;24.598;2024-03-06T04:57:34;15.80;;;9.33;;
8285;SDS011;4181;43.416;24.598;2024-03-06T05:00:06;17.60;;;9.03;;
8285;SDS011;4181;43.416;24.598;2024-03-06T05:02:34;14.80;;;9.13;;
8285;SDS011;4181;43.416;24.598;2024-03-06T05:05:02;19.83;;;9.77;;
8285;SDS011;4181;43.416;24.598;2024-03-06T05:07:30;20.20;;;9.97;;
8285;SDS011;4181;43.416;24.598;2024-03-06T05:09:59;19.43;;;9.80;;
8285;SDS011;4181;43.416;24.598;2024-03-06T05:12:38;24.43;;;10.33;;
8285;SDS011;4181;43.416;24.598;2024-03-06T05:15:09;20.03;;;10.07;;
8285;SDS011;4181;43.416;24.598;2024-03-06T05:17:44;16.50;;;9.60;;
8285;SDS011;4181;43.416;24.598;2024-03-06T05:22:56;20.47;;;11.33;;
8285;SDS011;4181;43.416;24.598;2024-03-06T05:25:35;22.30;;;12.43;;
8285;SDS011;4181;43.416;24.598;2024-03-06T05:28:09;19.67;;;10.97;;
8285;SDS011;4181;43.416;24.598;2024-03-06T05:30:36;21.43;;;12.17;;
8285;SDS011;4181;43.416;24.598;2024-03-06T05:33:07;21.63;;;12.87;;
8285;SDS011;4181;43.416;24.598;2024-03-06T05:35:35;27.87;;;12.73;;
8285;SDS011;4181;43.416;24.598;2024-03-06T05:38:04;27.43;;;13.77;;
8285;SDS011;4181;43.416;24.598;2024-03-06T05:40:37;21.40;;;12.80;;
8285;SDS011;4181;43.416;24.598;2024-03-06T05:43:16;22.80;;;11.97;;
8285;SDS011;4181;43.416;24.598;2024-03-06T05:45:42;17.87;;;10.07;;
8285;SDS011;4181;43.416;24.598;2024-03-06T05:48:27;19.50;;;10.50;;
8285;SDS011;4181;43.416;24.598;2024-03-06T05:50:56;20.60;;;12.27;;
8285;SDS011;4181;43.416;24.598;2024-03-06T05:53:24;22.00;;;12.13;;
8285;SDS011;4181;43.416;24.598;2024-03-06T05:55:54;18.80;;;10.53;;
8285;SDS011;4181;43.416;24.598;2024-03-06T05:58:29;18.20;;;11.40;;
8285;SDS011;4181;43.416;24.598;2024-03-06T06:01:02;17.77;;;10.80;;
8285;SDS011;4181;43.416;24.598;2024-03-06T06:03:38;20.13;;;12.47;;
8285;SDS011;4181;43.416;24.598;2024-03-06T06:06:09;18.17;;;11.20;;
8285;SDS011;4181;43.416;24.598;2024-03-06T06:08:38;21.27;;;12.37;;
8285;SDS011;4181;43.416;24.598;2024-03-06T06:11:05;24.47;;;13.40;;
8285;SDS011;4181;43.416;24.598;2024-03-06T06:13:32;30.03;;;13.80;;
8285;SDS011;4181;43.416;24.598;2024-03-06T06:15:58;25.90;;;15.07;;
8285;SDS011;4181;43.416;24.598;2024-03-06T06:18:28;25.40;;;13.30;;
8285;SDS011;4181;43.416;24.598;2024-03-06T06:20:54;29.70;;;13.87;;
8285;SDS011;4181;43.416;24.598;2024-03-06T06:23:20;27.90;;;13.90;;
8285;SDS011;4181;43.416;24.598;2024-03-06T06:25:48;22.87;;;13.03;;
8285;SDS011;4181;43.416;24.598;2024-03-06T06:28:19;18.50;;;11.83;;
8285;SDS011;4181;43.416;24.598;2024-03-06T06:30:50;28.60;;;13.17;;
8285;SDS011;4181;43.416;24.598;2024-03-06T06:33:25;22.87;;;12.40;;
8285;SDS011;4181;43.416;24.598;2024-03-06T06:35:53;19.77;;;11.90;;
8285;SDS011;4181;43.416;24.598;2024-03-06T06:38:26;19.37;;;10.70;;
8285;SDS011;4181;43.416;24.598;2024-03-06T06:40:53;37.87;;;20.33;;
8285;SDS011;4181;43.416;24.598;2024-03-06T06:43:23;33.47;;;16.13;;
8285;SDS011;4181;43.416;24.598;2024-03-06T06:45:58;21.33;;;14.67;;
8285;SDS011;4181;43.416;24.598;2024-03-06T06:48:33;29.60;;;16.77;;
8285;SDS011;4181;43.416;24.598;2024-03-06T06:51:16;19.17;;;12.07;;
8285;SDS011;4181;43.416;24.598;2024-03-06T06:53:43;24.07;;;13.80;;
8285;SDS011;4181;43.416;24.598;2024-03-06T06:56:11;19.67;;;13.50;;
8285;SDS011;4181;43.416;24.598;2024-03-06T06:58:40;23.83;;;15.73;;
8285;SDS011;4181;43.416;24.598;2024-03-06T07:01:19;25.07;;;14.00;;
8285;SDS011;4181;43.416;24.598;2024-03-06T07:03:45;30.33;;;16.50;;
8285;SDS011;4181;43.416;24.598;2024-03-06T07:06:12;21.53;;;13.77;;
8285;SDS011;4181;43.416;24.598;2024-03-06T07:08:38;28.60;;;15.53;;
8285;SDS011;4181;43.416;24.598;2024-03-06T07:11:07;27.20;;;14.60;;
8285;SDS011;4181;43.416;24.598;2024-03-06T07:13:32;25.67;;;13.60;;
8285;SDS011;4181;43.416;24.598;2024-03-06T07:16:02;26.10;;;14.73;;
8285;SDS011;4181;43.416;24.598;2024-03-06T07:18:35;24.57;;;13.73;;
8285;SDS011;4181;43.416;24.598;2024-03-06T07:21:00;24.60;;;13.83;;
8285;SDS011;4181;43.416;24.598;2024-03-06T07:23:32;25.50;;;12.70;;
8285;SDS011;4181;43.416;24.598;2024-03-06T07:26:00;22.83;;;13.17;;
8285;SDS011;4181;43.416;24.598;2024-03-06T07:28:28;26.07;;;13.97;;
8285;SDS011;4181;43.416;24.598;2024-03-06T07:30:54;21.73;;;12.43;;
8285;SDS011;4181;43.416;24.598;2024-03-06T07:33:20;22.23;;;12.97;;
8285;SDS011;4181;43.416;24.598;2024-03-06T07:35:50;22.00;;;12.77;;
8285;SDS011;4181;43.416;24.598;2024-03-06T07:38:21;20.00;;;12.73;;
8285;SDS011;4181;43.416;24.598;2024-03-06T07:40:48;29.53;;;15.00;;
8285;SDS011;4181;43.416;24.598;2024-03-06T07:43:15;24.40;;;14.97;;
8285;SDS011;4181;43.416;24.598;2024-03-06T07:45:43;22.97;;;12.40;;
8285;SDS011;4181;43.416;24.598;2024-03-06T07:48:09;30.10;;;12.07;;
8285;SDS011;4181;43.416;24.598;2024-03-06T07:50:38;22.70;;;12.50;;
8285;SDS011;4181;43.416;24.598;2024-03-06T07:53:05;26.30;;;12.87;;
8285;SDS011;4181;43.416;24.598;2024-03-06T07:55:34;25.60;;;12.33;;
8285;SDS011;4181;43.416;24.598;2024-03-06T07:58:06;21.27;;;12.70;;
8285;SDS011;4181;43.416;24.598;2024-03-06T08:00:35;25.33;;;12.90;;
8285;SDS011;4181;43.416;24.598;2024-03-06T08:03:06;24.70;;;12.40;;
8285;SDS011;4181;43.416;24.598;2024-03-06T08:05:38;29.67;;;14.60;;
8285;SDS011;4181;43.416;24.598;2024-03-06T08:08:06;29.97;;;13.93;;
8285;SDS011;4181;43.416;24.598;2024-03-06T08:10:33;32.63;;;12.80;;
8285;SDS011;4181;43.416;24.598;2024-03-06T08:13:06;27.50;;;14.07;;
8285;SDS011;4181;43.416;24.598;2024-03-06T08:15:38;25.53;;;13.77;;
8285;SDS011;4181;43.416;24.598;2024-03-06T08:18:09;31.43;;;15.30;;
8285;SDS011;4181;43.416;24.598;2024-03-06T08:20:39;21.70;;;12.40;;
8285;SDS011;4181;43.416;24.598;2024-03-06T08:23:04;26.20;;;11.73;;
8285;SDS011;4181;43.416;24.598;2024-03-06T08:25:31;56.57;;;24.30;;
8285;SDS011;4181;43.416;24.598;2024-03-06T08:28:04;24.40;;;14.83;;
8285;SDS011;4181;43.416;24.598;2024-03-06T08:30:33;30.37;;;15.03;;
8285;SDS011;4181;43.416;24.598;2024-03-06T08:33:04;18.60;;;11.50;;
8285;SDS011;4181;43.416;24.598;2024-03-06T08:35:32;23.20;;;11.63;;
8285;SDS011;4181;43.416;24.598;2024-03-06T08:38:00;17.50;;;11.57;;
8285;SDS011;4181;43.416;24.598;2024-03-06T08:40:30;17.47;;;9.83;;
8285;SDS011;4181;43.416;24.598;2024-03-06T08:43:00;17.90;;;10.87;;
8285;SDS011;4181;43.416;24.598;2024-03-06T08:45:27;17.57;;;9.27;;
8285;SDS011;4181;43.416;24.598;2024-03-06T08:47:52;17.23;;;9.97;;
8285;SDS011;4181;43.416;24.598;2024-03-06T08:50:20;22.53;;;10.57;;
8285;SDS011;4181;43.416;24.598;2024-03-06T08:52:50;20.50;;;10.90;;
8285;SDS011;4181;43.416;24.598;2024-03-06T08:55:17;19.87;;;10.67;;
8285;SDS011;4181;43.416;24.598;2024-03-06T08:57:45;18.53;;;10.23;;
8285;SDS011;4181;43.416;24.598;2024-03-06T09:00:18;15.83;;;9.77;;
8285;SDS011;4181;43.416;24.598;2024-03-06T09:02:45;20.33;;;11.10;;
8285;SDS011;4181;43.416;24.598;2024-03-06T09:05:12;21.57;;;12.93;;
8285;SDS011;4181;43.416;24.598;2024-03-06T09:07:40;21.67;;;12.67;;
8285;SDS011;4181;43.416;24.598;2024-03-06T09:10:07;27.70;;;13.57;;
8285;SDS011;4181;43.416;24.598;2024-03-06T09:12:37;21.77;;;12.87;;
8285;SDS011;4181;43.416;24.598;2024-03-06T09:15:05;28.70;;;13.13;;
8285;SDS011;4181;43.416;24.598;2024-03-06T09:17:36;19.43;;;10.63;;
8285;SDS011;4181;43.416;24.598;2024-03-06T09:20:08;18.67;;;10.87;;
8285;SDS011;4181;43.416;24.598;2024-03-06T09:22:38;14.60;;;9.37;;
8285;SDS011;4181;43.416;24.598;2024-03-06T09:25:07;21.20;;;11.20;;
8285;SDS011;4181;43.416;24.598;2024-03-06T09:27:40;21.60;;;10.90;;
8285;SDS011;4181;43.416;24.598;2024-03-06T09:30:09;23.77;;;11.17;;
8285;SDS011;4181;43.416;24.598;2024-03-06T09:32:40;23.63;;;11.63;;
8285;SDS011;4181;43.416;24.598;2024-03-06T09:35:09;18.83;;;10.97;;
8285;SDS011;4181;43.416;24.598;2024-03-06T09:37:34;24.90;;;11.97;;
8285;SDS011;4181;43.416;24.598;2024-03-06T09:40:06;17.83;;;10.63;;
8285;SDS011;4181;43.416;24.598;2024-03-06T09:42:38;24.90;;;11.50;;
8285;SDS011;4181;43.416;24.598;2024-03-06T09:45:06;24.83;;;11.50;;
8285;SDS011;4181;43.416;24.598;2024-03-06T09:47:33;22.07;;;11.30;;
8285;SDS011;4181;43.416;24.598;2024-03-06T09:50:04;21.10;;;10.47;;
8285;SDS011;4181;43.416;24.598;2024-03-06T09:52:37;17.80;;;10.73;;
8285;SDS011;4181;43.416;24.598;2024-03-06T09:55:06;18.47;;;10.93;;
8285;SDS011;4181;43.416;24.598;2024-03-06T09:57:34;19.83;;;11.03;;
8285;SDS011;4181;43.416;24.598;2024-03-06T10:00:00;23.07;;;13.23;;
8285;SDS011;4181;43.416;24.598;2024-03-06T10:02:34;20.30;;;10.80;;
8285;SDS011;4181;43.416;24.598;2024-03-06T10:05:24;17.23;;;10.83;;
8285;SDS011;4181;43.416;24.598;2024-03-06T10:07:56;16.17;;;10.40;;
8285;SDS011;4181;43.416;24.598;2024-03-06T10:13:35;13.93;;;9.93;;
8285;SDS011;4181;43.416;24.598;2024-03-06T10:16:03;18.77;;;10.50;;
8285;SDS011;4181;43.416;24.598;2024-03-06T10:18:35;19.30;;;9.70;;
8285;SDS011;4181;43.416;24.598;2024-03-06T10:21:05;15.90;;;9.73;;
8285;SDS011;4181;43.416;24.598;2024-03-06T10:26:17;17.23;;;9.33;;
8285;SDS011;4181;43.416;24.598;2024-03-06T10:28:45;16.43;;;9.93;;
8285;SDS011;4181;43.416;24.598;2024-03-06T10:31:26;17.63;;;9.53;;
8285;SDS011;4181;43.416;24.598;2024-03-06T10:34:03;19.63;;;9.50;;
8285;SDS011;4181;43.416;24.598;2024-03-06T10:36:34;13.47;;;8.37;;
8285;SDS011;4181;43.416;24.598;2024-03-06T10:39:05;15.37;;;9.77;;
8285;SDS011;4181;43.416;24.598;2024-03-06T10:41:36;22.07;;;11.40;;
8285;SDS011;4181;43.416;24.598;2024-03-06T10:44:14;22.90;;;11.63;;
8285;SDS011;4181;43.416;24.598;2024-03-06T10:46:44;19.27;;;10.40;;
8285;SDS011;4181;43.416;24.598;2024-03-06T10:49:18;17.63;;;10.03;;
8285;SDS011;4181;43.416;24.598;2024-03-06T10:51:48;21.87;;;10.47;;
8285;SDS011;4181;43.416;24.598;2024-03-06T10:54:27;18.70;;;10.83;;
8285;SDS011;4181;43.416;24.598;2024-03-06T10:57:00;18.43;;;9.50;;
8285;SDS011;4181;43.416;24.598;2024-03-06T10:59:32;17.13;;;9.50;;
8285;SDS011;4181;43.416;24.598;2024-03-06T11:02:06;14.73;;;9.70;;
8285;SDS011;4181;43.416;24.598;2024-03-06T11:04:38;36.10;;;16.23;;
8285;SDS011;4181;43.416;24.598;2024-03-06T11:07:08;20.57;;;11.20;;
8285;SDS011;4181;43.416;24.598;2024-03-06T11:09:40;17.73;;;9.83;;
8285;SDS011;4181;43.416;24.598;2024-03-06T11:17:46;19.13;;;10.13;;
8285;SDS011;4181;43.416;24.598;2024-03-06T11:20:23;15.67;;;9.93;;
8285;SDS011;4181;43.416;24.598;2024-03-06T11:23:04;20.37;;;11.10;;
8285;SDS011;4181;43.416;24.598;2024-03-06T11:26:06;25.67;;;11.30;;
8285;SDS011;4181;43.416;24.598;2024-03-06T11:28:38;19.83;;;11.23;;
8285;SDS011;4181;43.416;24.598;2024-03-06T11:31:07;24.60;;;14.13;;
8285;SDS011;4181;43.416;24.598;2024-03-06T11:36:19;28.00;;;11.60;;
8285;SDS011;4181;43.416;24.598;2024-03-06T11:38:55;19.03;;;9.97;;
8285;SDS011;4181;43.416;24.598;2024-03-06T11:44:24;20.60;;;10.50;;
8285;SDS011;4181;43.416;24.598;2024-03-06T11:49:32;16.53;;;9.97;;
8285;SDS011;4181;43.416;24.598;2024-03-06T11:52:03;18.03;;;10.20;;
8285;SDS011;4181;43.416;24.598;2024-03-06T11:54:30;22.77;;;10.30;;
8285;SDS011;4181;43.416;24.598;2024-03-06T11:57:00;16.77;;;10.33;;
8285;SDS011;4181;43.416;24.598;2024-03-06T11:59:34;21.03;;;10.60;;
8285;SDS011;4181;43.416;24.598;2024-03-06T12:02:19;18.77;;;10.30;;
8285;SDS011;4181;43.416;24.598;2024-03-06T12:04:48;19.53;;;10.40;;
8285;SDS011;4181;43.416;24.598;2024-03-06T12:07:22;20.53;;;11.03;;
8285;SDS011;4181;43.416;24.598;2024-03-06T12:12:33;21.03;;;10.43;;
8285;SDS011;4181;43.416;24.598;2024-03-06T12:15:06;21.70;;;11.40;;
8285;SDS011;4181;43.416;24.598;2024-03-06T12:17:48;22.17;;;11.27;;
8285;SDS011;4181;43.416;24.598;2024-03-06T12:20:20;17.97;;;10.73;;
8285;SDS011;4181;43.416;24.598;2024-03-06T12:22:49;19.43;;;10.10;;
8285;SDS011;4181;43.416;24.598;2024-03-06T12:25:26;19.33;;;10.07;;
8285;SDS011;4181;43.416;24.598;2024-03-06T12:28:07;14.03;;;9.20;;
8285;SDS011;4181;43.416;24.598;2024-03-06T12:30:40;17.00;;;8.93;;
8285;SDS011;4181;43.416;24.598;2024-03-06T12:36:07;19.17;;;9.90;;
8285;SDS011;4181;43.416;24.598;2024-03-06T12:38:40;15.90;;;8.93;;
8285;SDS011;4181;43.416;24.598;2024-03-06T12:41:16;26.30;;;11.80;;
8285;SDS011;4181;43.416;24.598;2024-03-06T12:43:43;13.67;;;8.30;;
8285;SDS011;4181;43.416;24.598;2024-03-06T12:46:08;14.57;;;9.03;;
8285;SDS011;4181;43.416;24.598;2024-03-06T12:48:44;15.43;;;8.60;;
8285;SDS011;4181;43.416;24.598;2024-03-06T12:51:12;13.07;;;7.93;;
8285;SDS011;4181;43.416;24.598;2024-03-06T12:53:44;16.67;;;8.77;;
8285;SDS011;4181;43.416;24.598;2024-03-06T12:56:17;16.47;;;8.40;;
8285;SDS011;4181;43.416;24.598;2024-03-06T12:58:52;19.67;;;10.67;;
8285;SDS011;4181;43.416;24.598;2024-03-06T13:01:27;17.43;;;9.47;;
8285;SDS011;4181;43.416;24.598;2024-03-06T13:03:58;16.50;;;9.70;;
8285;SDS011;4181;43.416;24.598;2024-03-06T13:06:25;11.80;;;8.70;;
8285;SDS011;4181;43.416;24.598;2024-03-06T13:08:53;17.97;;;10.33;;
8285;SDS011;4181;43.416;24.598;2024-03-06T13:11:22;16.93;;;9.53;;
8285;SDS011;4181;43.416;24.598;2024-03-06T13:13:49;16.83;;;9.20;;
8285;SDS011;4181;43.416;24.598;2024-03-06T13:16:17;15.30;;;9.60;;
8285;SDS011;4181;43.416;24.598;2024-03-06T13:18:43;17.40;;;8.90;;
8285;SDS011;4181;43.416;24.598;2024-03-06T13:21:16;13.30;;;8.77;;
8285;SDS011;4181;43.416;24.598;2024-03-06T13:23:55;14.13;;;9.30;;
8285;SDS011;4181;43.416;24.598;2024-03-06T13:26:23;15.80;;;9.43;;
8285;SDS011;4181;43.416;24.598;2024-03-06T13:28:51;18.93;;;9.73;;
8285;SDS011;4181;43.416;24.598;2024-03-06T13:31:22;14.27;;;8.90;;
8285;SDS011;4181;43.416;24.598;2024-03-06T13:34:01;12.83;;;7.97;;
8285;SDS011;4181;43.416;24.598;2024-03-06T13:36:28;16.47;;;9.17;;
8285;SDS011;4181;43.416;24.598;2024-03-06T13:38:55;17.30;;;8.30;;
8285;SDS011;4181;43.416;24.598;2024-03-06T13:41:32;13.70;;;8.00;;
8285;SDS011;4181;43.416;24.598;2024-03-06T13:43:57;15.77;;;7.60;;
8285;SDS011;4181;43.416;24.598;2024-03-06T13:46:26;15.10;;;8.33;;
8285;SDS011;4181;43.416;24.598;2024-03-06T13:48:56;13.70;;;8.40;;
8285;SDS011;4181;43.416;24.598;2024-03-06T13:51:25;12.77;;;8.03;;
8285;SDS011;4181;43.416;24.598;2024-03-06T13:53:52;16.63;;;8.90;;
8285;SDS011;4181;43.416;24.598;2024-03-06T13:56:23;13.60;;;8.00;;
8285;SDS011;4181;43.416;24.598;2024-03-06T13:58:52;14.43;;;8.10;;
8285;SDS011;4181;43.416;24.598;2024-03-06T14:01:24;14.30;;;7.67;;
8285;SDS011;4181;43.416;24.598;2024-03-06T14:03:53;11.83;;;7.30;;
8285;SDS011;4181;43.416;24.598;2024-03-06T14:06:22;17.87;;;7.80;;
8285;SDS011;4181;43.416;24.598;2024-03-06T14:08:52;18.77;;;8.23;;
8285;SDS011;4181;43.416;24.598;2024-03-06T14:11:21;12.87;;;8.03;;
8285;SDS011;4181;43.416;24.598;2024-03-06T14:13:47;13.27;;;8.13;;
8285;SDS011;4181;43.416;24.598;2024-03-06T14:16:27;16.30;;;8.60;;
8285;SDS011;4181;43.416;24.598;2024-03-06T14:18:52;13.73;;;7.87;;
8285;SDS011;4181;43.416;24.598;2024-03-06T14:21:22;14.53;;;7.87;;
8285;SDS011;4181;43.416;24.598;2024-03-06T14:23:51;12.27;;;8.53;;
8285;SDS011;4181;43.416;24.598;2024-03-06T14:26:18;14.10;;;8.23;;
8285;SDS011;4181;43.416;24.598;2024-03-06T14:28:47;16.00;;;8.00;;
8285;SDS011;4181;43.416;24.598;2024-03-06T14:31:17;15.03;;;8.40;;
8285;SDS011;4181;43.416;24.598;2024-03-06T14:33:44;14.23;;;8.27;;
8285;SDS011;4181;43.416;24.598;2024-03-06T14:36:15;17.40;;;9.43;;
8285;SDS011;4181;43.416;24.598;2024-03-06T14:38:44;14.80;;;7.33;;
8285;SDS011;4181;43.416;24.598;2024-03-06T14:41:25;11.97;;;8.33;;
8285;SDS011;4181;43.416;24.598;2024-03-06T14:43:59;12.83;;;8.30;;
8285;SDS011;4181;43.416;24.598;2024-03-06T14:46:29;12.60;;;7.43;;
8285;SDS011;4181;43.416;24.598;2024-03-06T14:51:34;14.73;;;8.43;;
8285;SDS011;4181;43.416;24.598;2024-03-06T14:54:07;12.13;;;7.10;;
8285;SDS011;4181;43.416;24.598;2024-03-06T14:56:35;13.37;;;8.07;;
8285;SDS011;4181;43.416;24.598;2024-03-06T14:59:04;14.13;;;8.37;;
8285;SDS011;4181;43.416;24.598;2024-03-06T15:01:34;12.57;;;8.67;;
8285;SDS011;4181;43.416;24.598;2024-03-06T15:04:07;10.63;;;6.40;;
8285;SDS011;4181;43.416;24.598;2024-03-06T15:09:20;18.90;;;7.83;;
8285;SDS011;4181;43.416;24.598;2024-03-06T15:11:50;11.07;;;7.67;;
8285;SDS011;4181;43.416;24.598;2024-03-06T15:14:25;14.63;;;6.37;;
8285;SDS011;4181;43.416;24.598;2024-03-06T15:16:56;14.93;;;7.80;;
8285;SDS011;4181;43.416;24.598;2024-03-06T15:19:30;10.33;;;7.10;;
8285;SDS011;4181;43.416;24.598;2024-03-06T15:22:05;11.10;;;6.83;;
8285;SDS011;4181;43.416;24.598;2024-03-06T15:24:39;12.87;;;7.57;;
8285;SDS011;4181;43.416;24.598;2024-03-06T15:27:29;12.70;;;7.60;;
8285;SDS011;4181;43.416;24.598;2024-03-06T15:30:07;10.67;;;6.50;;
8285;SDS011;4181;43.416;24.598;2024-03-06T15:32:39;15.10;;;7.20;;
8285;SDS011;4181;43.416;24.598;2024-03-06T15:35:05;12.07;;;6.90;;
8285;SDS011;4181;43.416;24.598;2024-03-06T15:37:40;16.20;;;7.57;;
8285;SDS011;4181;43.416;24.598;2024-03-06T15:40:22;10.90;;;8.10;;
8285;SDS011;4181;43.416;24.598;2024-03-06T15:42:51;13.00;;;6.60;;
8285;SDS011;4181;43.416;24.598;2024-03-06T15:45:20;15.47;;;8.27;;
8285;SDS011;4181;43.416;24.598;2024-03-06T15:47:49;12.27;;;7.83;;